createdAt,value
2023-06-08T00:01:27.072Z,97903.00
2023-06-08T00:04:06.657Z,97902.00
2023-06-08T00:06:42.633Z,97902.00
2023-06-08T00:09:19.776Z,97902.00
2023-06-08T00:11:56.218Z,97906.00
2023-06-08T00:14:33.102Z,97904.00
2023-06-08T00:17:10.037Z,97899.00
2023-06-08T00:19:46.616Z,97904.00
2023-06-08T00:22:22.744Z,97901.00
2023-06-08T00:24:58.681Z,97895.00
2023-06-08T00:27:35.630Z,97891.00
2023-06-08T00:30:14.950Z,97889.00
2023-06-08T00:32:51.134Z,97901.00
2023-06-08T00:35:27.167Z,97896.00
2023-06-08T00:38:03.070Z,97897.00
2023-06-08T00:40:38.945Z,97896.00
2023-06-08T00:43:14.848Z,97903.00
2023-06-08T00:46:12.274Z,97905.00
2023-06-08T00:48:49.024Z,97892.00
2023-06-08T00:51:28.198Z,97895.00
2023-06-08T00:54:05.611Z,97893.00
2023-06-08T00:56:42.549Z,97891.00
2023-06-08T00:59:18.539Z,97888.00
2023-06-08T01:01:58.188Z,97884.00
2023-06-08T01:04:37.171Z,97890.00
2023-06-08T01:07:50.044Z,97897.00
2023-06-08T01:10:36.371Z,97899.00
2023-06-08T01:13:26.424Z,97891.00
2023-06-08T01:16:04.690Z,97892.00
2023-06-08T01:18:42.953Z,97896.00
2023-06-08T01:21:50.177Z,97887.00
2023-06-08T01:24:31.933Z,97888.00
2023-06-08T01:27:10.614Z,97887.00
2023-06-08T01:29:49.387Z,97888.00
2023-06-08T01:32:25.540Z,97884.00
2023-06-08T01:35:01.961Z,97883.00
2023-06-08T01:37:48.370Z,97890.00
2023-06-08T01:40:36.488Z,97884.00
2023-06-08T01:43:14.221Z,97885.00
2023-06-08T01:45:53.157Z,97885.00
2023-06-08T01:48:31.934Z,97875.00
2023-06-08T01:51:09.847Z,97879.00
2023-06-08T01:53:46.008Z,97882.00
2023-06-08T01:56:22.041Z,97878.00
2023-06-08T01:58:58.216Z,97868.00
2023-06-08T02:01:34.205Z,97867.00
2023-06-08T02:04:10.145Z,97868.00
2023-06-08T02:06:46.239Z,97870.00
2023-06-08T02:09:22.207Z,97865.00
2023-06-08T02:12:09.764Z,97871.00
2023-06-08T02:14:47.329Z,97859.00
2023-06-08T02:17:28.203Z,97859.00
2023-06-08T02:20:10.267Z,97867.00
2023-06-08T02:22:46.683Z,97870.00
2023-06-08T02:25:22.576Z,97868.00
2023-06-08T02:27:58.929Z,97870.00
2023-06-08T02:30:34.878Z,97868.00
2023-06-08T02:33:10.810Z,97870.00
2023-06-08T02:35:47.703Z,97870.00
2023-06-08T02:38:23.635Z,97865.00
2023-06-08T02:40:59.538Z,97859.00
2023-06-08T02:43:35.740Z,97869.00
2023-06-08T02:46:12.406Z,97872.00
2023-06-08T02:48:51.038Z,97866.00
2023-06-08T02:51:27.783Z,97862.00
2023-06-08T02:54:04.090Z,97857.00
2023-06-08T02:56:40.079Z,97868.00
2023-06-08T02:59:17.163Z,97872.00
2023-06-08T03:01:54.766Z,97872.00
2023-06-08T03:04:35.808Z,97871.00
2023-06-08T03:07:17.000Z,97875.00
2023-06-08T03:10:01.251Z,97874.00
2023-06-08T03:12:37.239Z,97879.00
2023-06-08T03:15:23.986Z,97876.00
2023-06-08T03:18:03.754Z,97888.00
2023-06-08T03:20:41.874Z,97879.00
2023-06-08T03:23:23.922Z,97890.00
2023-06-08T03:26:03.836Z,97882.00
2023-06-08T03:28:39.737Z,97879.00
2023-06-08T03:31:15.901Z,97879.00
2023-06-08T03:33:57.297Z,97882.00
2023-06-08T03:36:36.215Z,97873.00
2023-06-08T03:39:18.471Z,97865.00
2023-06-08T03:41:54.450Z,97869.00
2023-06-08T03:44:33.653Z,97876.00
2023-06-08T03:47:10.228Z,97878.00
2023-06-08T03:49:49.001Z,97884.00
2023-06-08T03:52:24.975Z,97878.00
2023-06-08T03:55:00.984Z,97875.00
2023-06-08T03:57:38.428Z,97880.00
2023-06-08T04:00:16.225Z,97874.00
2023-06-08T04:02:53.074Z,97876.00
2023-06-08T04:05:34.932Z,97878.00
2023-06-08T04:08:11.623Z,97879.00
2023-06-08T04:10:47.961Z,97874.00
2023-06-08T04:13:23.942Z,97875.00
2023-06-08T04:16:00.070Z,97880.00
2023-06-08T04:18:41.122Z,97878.00
2023-06-08T04:21:19.429Z,97881.00
2023-06-08T04:23:57.380Z,97880.00
2023-06-08T04:26:37.243Z,97881.00
2023-06-08T04:29:14.887Z,97873.00
2023-06-08T04:31:51.521Z,97869.00
2023-06-08T04:34:28.078Z,97875.00
2023-06-08T04:37:04.630Z,97876.00
2023-06-08T04:39:40.725Z,97885.00
2023-06-08T04:42:18.672Z,97895.00
2023-06-08T04:44:55.103Z,97896.00
2023-06-08T04:47:32.812Z,97903.00
2023-06-08T04:50:09.667Z,97911.00
2023-06-08T04:52:46.825Z,97905.00
2023-06-08T04:55:24.321Z,97910.00
2023-06-08T04:58:00.337Z,97917.00
2023-06-08T05:00:36.348Z,97913.00
2023-06-08T05:03:12.454Z,97916.00
2023-06-08T05:05:49.363Z,97925.00
2023-06-08T05:08:25.516Z,97926.00
2023-06-08T05:11:01.384Z,97926.00
2023-06-08T05:13:37.280Z,97927.00
2023-06-08T05:16:13.281Z,97919.00
2023-06-08T05:18:49.160Z,97913.00
2023-06-08T05:21:25.071Z,97910.00
2023-06-08T05:24:01.299Z,97920.00
2023-06-08T05:26:37.671Z,97911.00
2023-06-08T05:29:13.606Z,97913.00
2023-06-08T05:31:50.607Z,97903.00
2023-06-08T05:34:27.312Z,97908.00
2023-06-08T05:37:04.875Z,97905.00
2023-06-08T05:39:41.699Z,97905.00
2023-06-08T05:42:27.750Z,97900.00
2023-06-08T05:45:05.081Z,97880.00
2023-06-08T05:47:41.660Z,97884.00
2023-06-08T05:50:18.091Z,97881.00
2023-06-08T05:52:54.049Z,97885.00
2023-06-08T05:55:29.964Z,97883.00
2023-06-08T05:58:06.236Z,97895.00
2023-06-08T06:00:42.197Z,97892.00
2023-06-08T06:03:18.267Z,97894.00
2023-06-08T06:05:54.373Z,97892.00
2023-06-08T06:08:30.996Z,97883.00
2023-06-08T06:11:07.002Z,97883.00
2023-06-08T06:13:42.996Z,97880.00
2023-06-08T06:16:19.552Z,97883.00
2023-06-08T06:18:55.668Z,97879.00
2023-06-08T06:21:31.626Z,97872.00
2023-06-08T06:24:07.805Z,97876.00
2023-06-08T06:26:43.811Z,97874.00
2023-06-08T06:29:19.910Z,97871.00
2023-06-08T06:31:56.218Z,97872.00
2023-06-08T06:34:32.187Z,97872.00
2023-06-08T06:37:08.155Z,97876.00
2023-06-08T06:39:44.078Z,97878.00
2023-06-08T06:42:21.624Z,97875.00
2023-06-08T06:45:12.338Z,97874.00
2023-06-08T06:48:38.598Z,97874.00
2023-06-08T06:51:14.606Z,97876.00
2023-06-08T06:53:50.803Z,97870.00
2023-06-08T06:56:26.789Z,97877.00
2023-06-08T06:59:06.554Z,97872.00
2023-06-08T07:01:43.026Z,97877.00
2023-06-08T07:04:20.920Z,97871.00
2023-06-08T07:06:57.486Z,97880.00
2023-06-08T07:09:33.568Z,97879.00
2023-06-08T07:12:15.557Z,97880.00
2023-06-08T07:14:52.652Z,97882.00
2023-06-08T07:17:28.588Z,97887.00
2023-06-08T07:20:05.485Z,97885.00
2023-06-08T07:23:00.761Z,97890.00
2023-06-08T07:26:26.707Z,97900.00
2023-06-08T07:28:37.512Z,97901.00
2023-06-08T07:31:13.547Z,97895.00
2023-06-08T07:33:49.771Z,97891.00
2023-06-08T07:36:28.912Z,97886.00
2023-06-08T07:39:05.034Z,97894.00
2023-06-08T07:41:40.942Z,97897.00
2023-06-08T07:44:16.987Z,97902.00
2023-06-08T07:46:52.982Z,97902.00
2023-06-08T07:49:32.228Z,97901.00
2023-06-08T07:52:08.493Z,97907.00
2023-06-08T07:54:44.369Z,97907.00
2023-06-08T07:57:21.040Z,97903.00
2023-06-08T07:59:56.922Z,97905.00
2023-06-08T08:02:32.950Z,97905.00
2023-06-08T08:05:10.614Z,97904.00
2023-06-08T08:07:46.533Z,97902.00
2023-06-08T08:10:24.326Z,97907.00
2023-06-08T08:13:02.342Z,97907.00
2023-06-08T08:15:38.307Z,97907.00
2023-06-08T08:18:14.421Z,97911.00
2023-06-08T08:20:50.387Z,97905.00
2023-06-08T08:23:26.345Z,97908.00
2023-06-08T08:26:02.258Z,97907.00
2023-06-08T08:28:42.301Z,97905.00
2023-06-08T08:31:18.388Z,97907.00
2023-06-08T08:33:54.325Z,97910.00
2023-06-08T08:36:30.482Z,97899.00
2023-06-08T08:39:06.438Z,97899.00
2023-06-08T08:41:44.376Z,97904.00
2023-06-08T08:44:21.656Z,97899.00
2023-06-08T08:47:03.370Z,97904.00
2023-06-08T08:49:44.565Z,97910.00
2023-06-08T08:52:21.450Z,97911.00
2023-06-08T08:54:58.531Z,97902.00
2023-06-08T08:57:34.464Z,97911.00
2023-06-08T09:00:11.436Z,97908.00
2023-06-08T09:02:47.978Z,97908.00
2023-06-08T09:05:23.927Z,97907.00
2023-06-08T09:08:00.047Z,97902.00
2023-06-08T09:10:36.268Z,97899.00
2023-06-08T09:13:21.963Z,97903.00
2023-06-08T09:16:09.017Z,97898.00
2023-06-08T09:18:47.356Z,97898.00
2023-06-08T09:21:28.281Z,97899.00
2023-06-08T09:24:19.587Z,97889.00
2023-06-08T09:27:00.580Z,97891.00
2023-06-08T09:29:43.397Z,97883.00
2023-06-08T09:32:27.235Z,97883.00
2023-06-08T09:35:05.016Z,97884.00
2023-06-08T09:37:44.375Z,97884.00
2023-06-08T09:40:26.191Z,97884.00
2023-06-08T09:43:02.470Z,97880.00
2023-06-08T09:45:48.164Z,97882.00
2023-06-08T09:48:24.167Z,97866.00
2023-06-08T09:51:01.397Z,97870.00
2023-06-08T09:53:38.223Z,97870.00
2023-06-08T09:56:17.028Z,97867.00
2023-06-08T09:58:58.538Z,97860.00
2023-06-08T10:01:42.787Z,97859.00
2023-06-08T10:04:33.554Z,97854.00
2023-06-08T10:07:16.613Z,97854.00
2023-06-08T10:10:05.628Z,97850.00
2023-06-08T10:12:42.321Z,97850.00
2023-06-08T10:15:20.375Z,97839.00
2023-06-08T10:17:56.562Z,97847.00
2023-06-08T10:20:33.839Z,97849.00
2023-06-08T10:23:10.726Z,97848.00
2023-06-08T10:25:47.099Z,97835.00
2023-06-08T10:28:23.188Z,97832.00
2023-06-08T10:30:59.290Z,97837.00
2023-06-08T10:33:41.490Z,97833.00
2023-06-08T10:36:17.705Z,97830.00
2023-06-08T10:38:55.917Z,97823.00
2023-06-08T10:41:55.524Z,97822.00
2023-06-08T10:44:34.245Z,97812.00
2023-06-08T10:47:13.491Z,97812.00
2023-06-08T10:50:03.785Z,97817.00
2023-06-08T10:52:46.253Z,97812.00
2023-06-08T10:55:23.063Z,97814.00
2023-06-08T10:58:17.350Z,97809.00
2023-06-08T11:01:06.377Z,97813.00
2023-06-08T11:03:48.546Z,97810.00
2023-06-08T11:06:30.685Z,97807.00
2023-06-08T11:09:07.360Z,97808.00
2023-06-08T11:11:52.754Z,97798.00
2023-06-08T11:14:28.732Z,97799.00
2023-06-08T11:17:04.792Z,97801.00
2023-06-08T11:19:40.705Z,97796.00
2023-06-08T11:22:16.647Z,97799.00
2023-06-08T11:24:52.583Z,97800.00
2023-06-08T11:27:28.483Z,97791.00
2023-06-08T11:30:05.047Z,97784.00
2023-06-08T11:32:45.045Z,97784.00
2023-06-08T11:35:22.510Z,97772.00
2023-06-08T11:38:02.092Z,97758.00
2023-06-08T11:40:42.681Z,97768.00
2023-06-08T11:43:21.600Z,97753.00
2023-06-08T11:46:01.430Z,97765.00
2023-06-08T11:48:37.386Z,97753.00
2023-06-08T11:51:13.405Z,97765.00
2023-06-08T11:53:49.300Z,97755.00
2023-06-08T11:56:25.196Z,97755.00
2023-06-08T11:59:03.778Z,97758.00
2023-06-08T12:01:59.078Z,97747.00
2023-06-08T12:04:35.517Z,97739.00
2023-06-08T12:07:13.702Z,97742.00
2023-06-08T12:09:51.144Z,97734.00
2023-06-08T12:12:31.016Z,97731.00
2023-06-08T12:15:08.555Z,97736.00
2023-06-08T12:17:45.206Z,97733.00
2023-06-08T12:20:21.454Z,97732.00
2023-06-08T12:22:57.336Z,97725.00
2023-06-08T12:25:33.789Z,97724.00
2023-06-08T12:28:25.312Z,97725.00
2023-06-08T12:31:02.307Z,97733.00
2023-06-08T12:33:38.526Z,97739.00
2023-06-08T12:36:14.410Z,97738.00
2023-06-08T12:38:50.380Z,97752.00
2023-06-08T12:41:27.628Z,97773.00
2023-06-08T12:44:04.113Z,97772.00
2023-06-08T12:46:41.645Z,97768.00
2023-06-08T12:49:17.602Z,97789.00
2023-06-08T12:51:54.611Z,97793.00
2023-06-08T12:54:30.490Z,97806.00
2023-06-08T12:57:06.767Z,97824.00
2023-06-08T12:59:42.771Z,97853.00
2023-06-08T13:02:20.498Z,97880.00
2023-06-08T13:04:56.814Z,97856.00
2023-06-08T13:07:33.077Z,97845.00
2023-06-08T13:10:09.813Z,97844.00
2023-06-08T13:12:46.464Z,97842.00
2023-06-08T13:15:22.349Z,97844.00
2023-06-08T13:17:59.291Z,97838.00
2023-06-08T13:20:36.430Z,97846.00
2023-06-08T13:23:12.327Z,97843.00
2023-06-08T13:25:48.640Z,97841.00
2023-06-08T13:28:25.156Z,97846.00
2023-06-08T13:31:01.101Z,97852.00
2023-06-08T13:33:37.040Z,97857.00
2023-06-08T13:36:13.032Z,97848.00
2023-06-08T13:38:48.994Z,97852.00
2023-06-08T13:41:26.109Z,97843.00
2023-06-08T13:44:05.652Z,97840.00
2023-06-08T13:46:41.661Z,97824.00
2023-06-08T13:49:18.434Z,97811.00
2023-06-08T13:51:54.461Z,97819.00
2023-06-08T13:54:30.344Z,97816.00
2023-06-08T13:57:07.073Z,97815.00
2023-06-08T13:59:43.146Z,97813.00
2023-06-08T14:02:19.098Z,97809.00
2023-06-08T14:04:55.224Z,97805.00
2023-06-08T14:07:31.099Z,97818.00
2023-06-08T14:10:08.655Z,97811.00
2023-06-08T14:12:44.891Z,97806.00
2023-06-08T14:15:20.855Z,97795.00
2023-06-08T14:17:58.223Z,97795.00
2023-06-08T14:20:35.401Z,97806.00
2023-06-08T14:23:11.314Z,97799.00
2023-06-08T14:25:47.187Z,97785.00
2023-06-08T14:28:23.092Z,97792.00
2023-06-08T14:30:59.022Z,97799.00
2023-06-08T14:33:34.932Z,97793.00
2023-06-08T14:36:10.843Z,97784.00
2023-06-08T14:38:47.076Z,97789.00
2023-06-08T14:41:24.140Z,97789.00
2023-06-08T14:44:00.054Z,97809.00
2023-06-08T14:46:36.006Z,97802.00
2023-06-08T14:49:12.060Z,97799.00
2023-06-08T14:51:47.935Z,97800.00
2023-06-08T14:54:23.852Z,97798.00
2023-06-08T14:56:59.939Z,97790.00
2023-06-08T14:59:35.933Z,97782.00
2023-06-08T15:02:11.819Z,97779.00
2023-06-08T15:04:47.813Z,97776.00
2023-06-08T15:07:23.719Z,97774.00
2023-06-08T15:09:59.908Z,97757.00
2023-06-08T15:12:35.831Z,97755.00
2023-06-08T15:15:11.988Z,97759.00
2023-06-08T15:17:47.898Z,97769.00
2023-06-08T15:20:23.910Z,97780.00
2023-06-08T15:23:00.259Z,97792.00
2023-06-08T15:25:39.315Z,97786.00
2023-06-08T15:28:15.240Z,97791.00
2023-06-08T15:30:51.398Z,97792.00
2023-06-08T15:33:29.401Z,97783.00
2023-06-08T15:36:05.941Z,97786.00
2023-06-08T15:38:41.815Z,97790.00
2023-06-08T15:41:18.444Z,97788.00
2023-06-08T15:43:54.341Z,97780.00
2023-06-08T15:46:30.295Z,97774.00
2023-06-08T15:49:06.224Z,97774.00
2023-06-08T15:51:44.208Z,97760.00
2023-06-08T15:54:20.122Z,97761.00
2023-06-08T15:56:56.089Z,97755.00
2023-06-08T15:59:32.006Z,97748.00
2023-06-08T16:02:08.039Z,97740.00
2023-06-08T16:04:44.117Z,97743.00
2023-06-08T16:07:20.088Z,97747.00
2023-06-08T16:09:57.997Z,97744.00
2023-06-08T16:12:33.965Z,97737.00
2023-06-08T16:15:10.534Z,97734.00
2023-06-08T16:17:46.587Z,97722.00
2023-06-08T16:20:22.663Z,97719.00
2023-06-08T16:22:58.803Z,97725.00
2023-06-08T16:26:01.068Z,97718.00
2023-06-08T16:28:37.042Z,97714.00
2023-06-08T16:31:16.400Z,97708.00
2023-06-08T16:33:52.378Z,97710.00
2023-06-08T16:36:28.288Z,97708.00
2023-06-08T16:39:05.269Z,97714.00
2023-06-08T16:41:41.329Z,97723.00
2023-06-08T16:44:18.519Z,97716.00
2023-06-08T16:46:55.705Z,97710.00
2023-06-08T16:49:32.002Z,97724.00
2023-06-08T16:52:09.023Z,97723.00
2023-06-08T16:54:44.948Z,97726.00
2023-06-08T16:57:20.829Z,97722.00
2023-06-08T16:59:56.752Z,97722.00
2023-06-08T17:02:32.853Z,97723.00
2023-06-08T17:05:09.261Z,97722.00
2023-06-08T17:07:45.360Z,97727.00
2023-06-08T17:10:21.387Z,97724.00
2023-06-08T17:12:57.328Z,97718.00
2023-06-08T17:15:33.339Z,97714.00
2023-06-08T17:18:09.365Z,97710.00
2023-06-08T17:20:45.272Z,97711.00
2023-06-08T17:23:21.404Z,97711.00
2023-06-08T17:25:57.350Z,97713.00
2023-06-08T17:28:33.311Z,97715.00
2023-06-08T17:31:09.447Z,97724.00
2023-06-08T17:33:45.386Z,97735.00
2023-06-08T17:36:21.268Z,97740.00
2023-06-08T17:38:57.266Z,97740.00
2023-06-08T17:41:34.116Z,97728.00
2023-06-08T17:44:10.291Z,97721.00
2023-06-08T17:46:46.617Z,97719.00
2023-06-08T17:49:22.514Z,97717.00
2023-06-08T17:51:58.477Z,97717.00
2023-06-08T17:54:34.431Z,97726.00
2023-06-08T17:57:10.935Z,97723.00
2023-06-08T17:59:47.147Z,97722.00
2023-06-08T18:02:23.107Z,97717.00
2023-06-08T18:04:59.052Z,97714.00
2023-06-08T18:07:34.941Z,97722.00
2023-06-08T18:10:11.031Z,97718.00
2023-06-08T18:12:46.932Z,97719.00
2023-06-08T18:15:23.417Z,97718.00
2023-06-08T18:17:59.431Z,97720.00
2023-06-08T18:20:35.455Z,97722.00
2023-06-08T18:23:11.948Z,97717.00
2023-06-08T18:25:48.728Z,97713.00
2023-06-08T18:28:24.731Z,97716.00
2023-06-08T18:31:00.797Z,97713.00
2023-06-08T18:33:36.760Z,97713.00
2023-06-08T18:36:12.876Z,97709.00
2023-06-08T18:38:48.832Z,97706.00
2023-06-08T18:41:25.403Z,97707.00
2023-06-08T18:44:01.276Z,97717.00
2023-06-08T18:46:37.322Z,97713.00
2023-06-08T18:49:13.284Z,97721.00
2023-06-08T18:51:49.271Z,97727.00
2023-06-08T18:54:25.275Z,97727.00
2023-06-08T18:57:01.183Z,97732.00
2023-06-08T18:59:37.181Z,97738.00
2023-06-08T19:02:13.097Z,97736.00
2023-06-08T19:04:49.049Z,97740.00
2023-06-08T19:07:25.005Z,97739.00
2023-06-08T19:10:03.712Z,97751.00
2023-06-08T19:12:39.768Z,97758.00
2023-06-08T19:15:15.752Z,97760.00
2023-06-08T19:17:51.772Z,97755.00
2023-06-08T19:20:29.399Z,97761.00
2023-06-08T19:23:05.464Z,97765.00
2023-06-08T19:25:41.363Z,97767.00
2023-06-08T19:28:17.854Z,97762.00
2023-06-08T19:30:53.739Z,97766.00
2023-06-08T19:33:29.848Z,97768.00
2023-06-08T19:36:06.004Z,97778.00
2023-06-08T19:38:47.108Z,97781.00
2023-06-08T19:41:23.792Z,97774.00
2023-06-08T19:43:59.773Z,97774.00
2023-06-08T19:46:38.599Z,97771.00
2023-06-08T19:49:19.600Z,97773.00
2023-06-08T19:51:56.491Z,97772.00
2023-06-08T19:54:32.527Z,97783.00
2023-06-08T19:57:08.448Z,97771.00
2023-06-08T19:59:44.415Z,97778.00
2023-06-08T20:02:20.464Z,97773.00
2023-06-08T20:04:56.641Z,97774.00
2023-06-08T20:07:32.638Z,97782.00
2023-06-08T20:10:10.005Z,97788.00
2023-06-08T20:12:46.152Z,97783.00
2023-06-08T20:15:23.262Z,97779.00
2023-06-08T20:18:03.955Z,97786.00
2023-06-08T20:20:40.889Z,97778.00
2023-06-08T20:23:16.963Z,97767.00
2023-06-08T20:25:53.276Z,97773.00
2023-06-08T20:28:29.315Z,97773.00
2023-06-08T20:31:05.220Z,97768.00
2023-06-08T20:33:41.189Z,97769.00
2023-06-08T20:36:17.362Z,97769.00
2023-06-08T20:38:53.241Z,97781.00
2023-06-08T20:41:32.625Z,97775.00
2023-06-08T20:44:08.590Z,97777.00
2023-06-08T20:46:44.755Z,97779.00
2023-06-08T20:49:20.724Z,97773.00
2023-06-08T20:51:56.649Z,97783.00
2023-06-08T20:54:32.882Z,97784.00
2023-06-08T20:57:08.957Z,97793.00
2023-06-08T20:59:45.070Z,97786.00
2023-06-08T21:02:21.270Z,97792.00
2023-06-08T21:04:57.223Z,97794.00
2023-06-08T21:07:33.237Z,97795.00
2023-06-08T21:10:10.041Z,97792.00
2023-06-08T21:12:46.010Z,97794.00
2023-06-08T21:15:21.947Z,97793.00
2023-06-08T21:17:57.949Z,97795.00
2023-06-08T21:20:34.069Z,97801.00
2023-06-08T21:23:09.988Z,97801.00
2023-06-08T21:25:46.177Z,97803.00
2023-06-08T21:28:22.149Z,97797.00
2023-06-08T21:30:58.108Z,97804.00
2023-06-08T21:33:34.019Z,97806.00
2023-06-08T21:36:12.717Z,97807.00
2023-06-08T21:38:50.953Z,97810.00
2023-06-08T21:41:27.084Z,97814.00
2023-06-08T21:44:03.090Z,97814.00
2023-06-08T21:46:38.973Z,97811.00
2023-06-08T21:49:14.978Z,97815.00
2023-06-08T21:51:50.952Z,97810.00
2023-06-08T21:54:27.459Z,97814.00
2023-06-08T21:57:04.060Z,97818.00
2023-06-08T21:59:40.104Z,97817.00
2023-06-08T22:02:16.084Z,97813.00
2023-06-08T22:04:52.834Z,97809.00
2023-06-08T22:07:28.814Z,97814.00
2023-06-08T22:10:05.219Z,97813.00
2023-06-08T22:12:43.060Z,97809.00
2023-06-08T22:15:19.021Z,97803.00
2023-06-08T22:17:55.753Z,97809.00
2023-06-08T22:20:33.499Z,97803.00
2023-06-08T22:23:10.569Z,97790.00
2023-06-08T22:25:46.510Z,97792.00
2023-06-08T22:28:22.537Z,97788.00
2023-06-08T22:30:59.091Z,97785.00
2023-06-08T22:33:35.568Z,97777.00
2023-06-08T22:36:12.047Z,97783.00
2023-06-08T22:38:47.957Z,97781.00
2023-06-08T22:41:23.974Z,97794.00
2023-06-08T22:44:00.354Z,97801.00
2023-06-08T22:46:38.102Z,97789.00
2023-06-08T22:49:14.763Z,97790.00
2023-06-08T22:51:50.657Z,97792.00
2023-06-08T22:54:26.826Z,97792.00
2023-06-08T22:57:02.757Z,97779.00
2023-06-08T22:59:39.039Z,97778.00
2023-06-08T23:02:14.995Z,97780.00
2023-06-08T23:04:52.609Z,97779.00
2023-06-08T23:07:28.767Z,97784.00
2023-06-08T23:10:05.957Z,97786.00
2023-06-08T23:12:43.874Z,97782.00
2023-06-08T23:15:22.262Z,97767.00
2023-06-08T23:17:58.433Z,97768.00
2023-06-08T23:20:34.486Z,97769.00
2023-06-08T23:23:10.388Z,97773.00
2023-06-08T23:25:46.449Z,97775.00
2023-06-08T23:28:22.524Z,97772.00
2023-06-08T23:30:58.473Z,97780.00
2023-06-08T23:33:34.424Z,97779.00
2023-06-08T23:36:10.336Z,97770.00
2023-06-08T23:38:47.014Z,97770.00
2023-06-08T23:41:24.224Z,97771.00
2023-06-08T23:44:00.202Z,97762.00
2023-06-08T23:46:40.125Z,97765.00
2023-06-08T23:49:16.176Z,97761.00
2023-06-08T23:51:52.092Z,97761.00
2023-06-08T23:54:27.947Z,97766.00
2023-06-08T23:57:04.026Z,97769.00
2023-06-08T23:59:39.898Z,97762.00
